Flugplatz Eichstätt

Für EDPE sind keine METAR/TAF Berichte vorhanden.
Es werden die Flugwettermeldungen vom Flugplatz Neuburg Airport in 18 km Entfernung angezeigt.

Bericht für ETSN

vom 22.03. um 21:20 UTC

variable Windrichtung mit 1 kt

Sichtweite 10 km oder mehr

Temperatur 4.0°C

Taupunkt 2.0°C

Luftfeuchtigkeit 87%

Luftdruck 1028 hPa

ETSN 222120Z VRB01KT 9999 04/02 Q1028 BLU+

Prognose für ETSN

vom 22.03. um 20:15 UTC

Zwischen 21:00 UTC und 22:00 UTC

Wind 5 kt aus 90°

Sichtweite 10 km oder mehr

keine signifikanten Wettererscheinungen

gering bewölkt in 25000 ft


Zwischen 22:00 und 00:00 UTC übergehend zu

variable Windrichtung mit 2 kt

Sichtweite 10 km oder mehr

keine signifikanten Wettererscheinungen

gering bewölkt in 800 ft


Am 23.03. zwischen 00:00 UTC und 05:00 UTC mit einer Wahrscheinlichkeit von 30%

variable Windrichtung mit 1 kt

Sichtweite 3000 m

feuchter Dunst

aufgelockert bewölkt in 400 ft

TAF ETSN 222015Z 2221/2306 09005KT 9999 NSW FEW250 BECMG 2222/2224 VRB02KT 9999 NSW FEW008 PROB30 2300/2305 VRB01KT 3000 BR SCT004 BY ETGL
Impressum